createdAt,value
2022-08-22T00:01:13.491Z,16.85
2022-08-22T00:02:43.289Z,19.33
2022-08-22T00:02:57.486Z,17.33
2022-08-22T00:04:21.267Z,16.95
2022-08-22T00:07:18.261Z,16.95
2022-08-22T00:10:25.401Z,16.90
2022-08-22T00:13:18.544Z,16.84
2022-08-22T00:16:03.746Z,16.81
2022-08-22T00:19:02.941Z,16.73
2022-08-22T00:22:07.925Z,16.72
2022-08-22T00:25:47.144Z,16.68
2022-08-22T00:28:41.981Z,16.62
2022-08-22T00:31:31.249Z,16.56
2022-08-22T00:34:26.476Z,16.47
2022-08-22T00:37:20.756Z,16.31
2022-08-22T00:40:28.593Z,16.35
2022-08-22T00:43:30.679Z,16.24
2022-08-22T00:46:23.764Z,16.27
2022-08-22T00:49:40.053Z,16.30
2022-08-22T00:52:52.696Z,16.24
2022-08-22T00:56:02.001Z,16.13
2022-08-22T00:59:18.083Z,16.04
2022-08-22T01:02:21.043Z,16.01
2022-08-22T01:05:38.865Z,16.00
2022-08-22T01:08:39.128Z,15.96
2022-08-22T01:11:42.796Z,15.93
2022-08-22T01:14:34.387Z,15.86
2022-08-22T01:17:48.632Z,15.83
2022-08-22T01:20:43.313Z,15.80
2022-08-22T01:23:50.739Z,15.75
2022-08-22T01:27:13.250Z,15.74
2022-08-22T01:30:44.239Z,15.67
2022-08-22T01:33:55.669Z,15.69
2022-08-22T01:37:07.954Z,15.75
2022-08-22T01:40:11.431Z,15.79
2022-08-22T01:43:12.049Z,15.75
2022-08-22T01:46:21.202Z,15.79
2022-08-22T01:49:38.649Z,15.85
2022-08-22T01:52:39.009Z,15.86
2022-08-22T01:55:48.021Z,15.89
2022-08-22T01:58:36.968Z,15.88
2022-08-22T02:01:25.497Z,15.91
2022-08-22T02:04:18.088Z,15.86
2022-08-22T02:07:20.011Z,15.80
2022-08-22T02:10:41.500Z,15.86
2022-08-22T02:13:41.952Z,15.87
2022-08-22T02:16:40.122Z,15.88
2022-08-22T02:19:39.963Z,15.83
2022-08-22T02:22:56.602Z,15.78
2022-08-22T02:26:03.077Z,15.72
2022-08-22T02:29:08.721Z,15.62
2022-08-22T02:32:00.687Z,15.57
2022-08-22T02:34:55.244Z,15.53
2022-08-22T02:38:05.345Z,15.55
2022-08-22T02:41:04.254Z,15.59
2022-08-22T02:43:57.188Z,15.51
2022-08-22T02:46:51.331Z,15.41
2022-08-22T02:49:51.017Z,15.37
2022-08-22T02:53:08.508Z,15.38
2022-08-22T02:56:05.969Z,15.35
2022-08-22T02:59:12.824Z,15.28
2022-08-22T03:02:18.714Z,15.27
2022-08-22T03:05:25.387Z,15.28
2022-08-22T03:08:27.327Z,15.27
2022-08-22T03:11:31.352Z,15.23
2022-08-22T03:14:41.798Z,15.14
2022-08-22T03:17:33.052Z,15.06
2022-08-22T03:20:45.403Z,15.00
2022-08-22T03:23:45.922Z,14.98
2022-08-22T03:27:00.793Z,14.98
2022-08-22T03:29:51.202Z,14.92
2022-08-22T03:32:55.486Z,14.90
2022-08-22T03:35:46.381Z,14.84
2022-08-22T03:38:34.318Z,14.80
2022-08-22T03:41:35.009Z,14.78
2022-08-22T03:44:51.436Z,14.84
2022-08-22T03:48:14.525Z,14.83
2022-08-22T03:51:13.561Z,14.79
2022-08-22T03:54:20.069Z,14.78
2022-08-22T03:57:26.863Z,14.74
2022-08-22T04:00:32.160Z,14.72
2022-08-22T04:03:59.033Z,14.66
2022-08-22T04:07:32.309Z,14.61
2022-08-22T04:10:53.030Z,14.54
2022-08-22T04:14:03.411Z,14.48
2022-08-22T04:17:25.316Z,14.52
2022-08-22T04:20:32.422Z,14.60
2022-08-22T04:23:42.869Z,14.60
2022-08-22T04:26:52.589Z,14.52
2022-08-22T04:29:58.704Z,14.49
2022-08-22T04:32:51.317Z,14.48
2022-08-22T04:35:46.121Z,14.48
2022-08-22T04:38:38.020Z,14.45
2022-08-22T04:41:48.820Z,14.42
2022-08-22T04:44:51.913Z,14.39
2022-08-22T04:47:43.585Z,14.46
2022-08-22T04:50:43.271Z,14.50
2022-08-22T04:53:47.388Z,14.48
2022-08-22T04:56:50.960Z,14.54
2022-08-22T04:59:36.945Z,14.48
2022-08-22T05:02:25.967Z,14.45
2022-08-22T05:05:17.518Z,14.57
2022-08-22T05:08:06.000Z,14.67
2022-08-22T05:10:54.074Z,14.74
2022-08-22T05:13:46.944Z,14.83
2022-08-22T05:16:40.938Z,15.03
2022-08-22T05:19:40.017Z,15.15
2022-08-22T05:22:33.013Z,15.29
2022-08-22T05:25:24.277Z,15.40
2022-08-22T05:28:20.920Z,15.45
2022-08-22T05:31:11.105Z,15.51
2022-08-22T05:34:04.231Z,15.49
2022-08-22T05:37:03.783Z,15.59
2022-08-22T05:39:58.086Z,15.64
2022-08-22T05:42:43.874Z,15.68
2022-08-22T05:45:35.165Z,15.72
2022-08-22T05:48:26.497Z,15.71
2022-08-22T05:51:24.251Z,15.80
2022-08-22T05:54:17.118Z,15.74
2022-08-22T05:57:08.130Z,15.49
2022-08-22T06:00:01.197Z,15.54
2022-08-22T06:03:03.384Z,15.60
2022-08-22T06:05:53.218Z,15.72
2022-08-22T06:08:48.409Z,15.78
2022-08-22T06:11:51.940Z,15.74
2022-08-22T06:14:56.617Z,15.71
2022-08-22T06:17:47.468Z,15.62
2022-08-22T06:21:02.481Z,15.63
2022-08-22T06:23:53.634Z,15.72
2022-08-22T06:26:48.704Z,15.88
2022-08-22T06:29:37.801Z,16.07
2022-08-22T06:32:32.631Z,16.27
2022-08-22T06:35:40.547Z,16.50
2022-08-22T06:38:32.005Z,16.65
2022-08-22T06:41:19.963Z,16.85
2022-08-22T06:44:06.911Z,17.05
2022-08-22T06:46:57.475Z,17.20
2022-08-22T06:49:45.083Z,17.40
2022-08-22T06:52:37.150Z,17.62
2022-08-22T06:55:24.981Z,17.82
2022-08-22T06:58:17.088Z,17.87
2022-08-22T07:01:12.235Z,17.91
2022-08-22T07:04:03.156Z,18.05
2022-08-22T07:06:51.177Z,18.25
2022-08-22T07:09:40.394Z,18.53
2022-08-22T07:12:35.492Z,18.77
2022-08-22T07:15:23.825Z,19.02
2022-08-22T07:18:14.709Z,19.52
2022-08-22T07:21:04.700Z,19.83
2022-08-22T07:23:50.781Z,20.17
2022-08-22T07:27:18.132Z,20.40
2022-08-22T07:30:13.092Z,20.67
2022-08-22T07:33:26.352Z,20.95
2022-08-22T07:36:36.604Z,21.66
2022-08-22T07:39:35.291Z,22.33
2022-08-22T07:42:44.058Z,23.05
2022-08-22T07:45:32.791Z,23.56
2022-08-22T07:48:29.157Z,24.01
2022-08-22T07:51:17.847Z,24.69
2022-08-22T07:54:07.451Z,25.55
2022-08-22T07:57:02.148Z,25.93
2022-08-22T07:59:52.248Z,26.52
2022-08-22T08:02:44.722Z,27.12
2022-08-22T08:05:36.978Z,27.11
2022-08-22T08:08:29.491Z,27.57
2022-08-22T08:11:16.808Z,27.91
2022-08-22T08:14:06.468Z,28.02
2022-08-22T08:17:04.217Z,28.39
2022-08-22T08:19:50.697Z,28.60
2022-08-22T08:22:40.057Z,28.75
2022-08-22T08:25:28.541Z,28.57
2022-08-22T08:28:14.499Z,28.92
2022-08-22T08:31:19.374Z,28.91
2022-08-22T08:34:15.395Z,28.88
2022-08-22T08:37:21.997Z,29.20
2022-08-22T08:40:20.993Z,29.66
2022-08-22T08:43:30.585Z,29.49
2022-08-22T08:46:25.312Z,30.07
2022-08-22T08:49:42.180Z,30.68
2022-08-22T08:52:45.560Z,30.70
2022-08-22T08:56:03.169Z,30.28
2022-08-22T08:59:26.059Z,30.70
2022-08-22T09:02:27.347Z,31.06
2022-08-22T09:05:48.870Z,31.37
2022-08-22T09:08:48.616Z,30.84
2022-08-22T09:12:01.109Z,31.21
2022-08-22T09:15:01.242Z,31.53
2022-08-22T09:18:24.833Z,30.82
2022-08-22T09:21:31.209Z,31.63
2022-08-22T09:24:35.137Z,31.56
2022-08-22T09:27:35.121Z,32.12
2022-08-22T09:30:27.625Z,32.11
2022-08-22T09:33:21.069Z,32.11
2022-08-22T09:36:24.352Z,31.51
2022-08-22T09:39:25.968Z,30.06
2022-08-22T09:42:23.537Z,29.60
2022-08-22T09:45:50.093Z,29.43
2022-08-22T09:48:38.163Z,29.07
2022-08-22T09:51:35.731Z,28.39
2022-08-22T09:54:31.111Z,28.21
2022-08-22T09:57:32.078Z,28.23
2022-08-22T10:00:23.104Z,27.93
2022-08-22T10:03:22.803Z,27.62
2022-08-22T10:06:17.840Z,27.49
2022-08-22T10:09:31.293Z,27.39
2022-08-22T10:12:27.122Z,27.29
2022-08-22T10:15:33.828Z,27.12
2022-08-22T10:18:53.933Z,27.34
2022-08-22T10:21:49.593Z,27.60
2022-08-22T10:25:20.117Z,27.80
2022-08-22T10:28:37.636Z,27.55
2022-08-22T10:31:29.016Z,27.60
2022-08-22T10:34:21.787Z,27.52
2022-08-22T10:37:28.381Z,27.41
2022-08-22T10:40:21.716Z,27.40
2022-08-22T10:43:21.250Z,27.13
2022-08-22T10:46:27.408Z,27.23
2022-08-22T10:49:19.466Z,27.02
2022-08-22T10:52:15.567Z,26.77
2022-08-22T10:55:20.526Z,26.89
2022-08-22T10:58:14.364Z,26.89
2022-08-22T11:01:38.106Z,27.03
2022-08-22T11:04:37.783Z,27.15
2022-08-22T11:07:28.962Z,27.33
2022-08-22T11:10:46.866Z,27.34
2022-08-22T11:14:12.329Z,27.13
2022-08-22T11:17:30.304Z,27.07
2022-08-22T11:20:19.900Z,26.65
2022-08-22T11:23:29.370Z,26.66
2022-08-22T11:26:33.598Z,26.69
2022-08-22T11:29:48.370Z,26.70
2022-08-22T11:33:01.245Z,26.66
2022-08-22T11:36:12.850Z,26.88
2022-08-22T11:39:02.695Z,26.82
2022-08-22T11:41:52.344Z,26.95
2022-08-22T11:44:50.151Z,26.92
2022-08-22T11:47:45.658Z,27.04
2022-08-22T11:50:38.233Z,26.91
2022-08-22T11:53:45.940Z,27.20
2022-08-22T11:56:40.173Z,27.71
2022-08-22T11:59:40.023Z,28.63
2022-08-22T12:02:28.644Z,29.21
2022-08-22T12:05:26.493Z,29.64
2022-08-22T12:08:30.122Z,30.47
2022-08-22T12:11:56.912Z,30.86
2022-08-22T12:14:42.844Z,31.39
2022-08-22T12:17:55.687Z,32.18
2022-08-22T12:20:55.702Z,32.50
2022-08-22T12:24:06.112Z,32.60
2022-08-22T12:27:28.578Z,32.59
2022-08-22T12:30:57.856Z,32.76
2022-08-22T12:34:24.386Z,32.10
2022-08-22T12:37:20.862Z,31.81
2022-08-22T12:40:32.067Z,32.20
2022-08-22T12:43:24.509Z,32.52
2022-08-22T12:46:25.358Z,32.72
2022-08-22T12:49:32.120Z,32.60
2022-08-22T12:52:44.286Z,32.44
2022-08-22T12:55:48.173Z,32.19
2022-08-22T12:58:45.937Z,31.38
2022-08-22T13:01:43.133Z,30.90
2022-08-22T13:04:34.091Z,30.73
2022-08-22T13:07:27.830Z,30.78
2022-08-22T13:10:14.083Z,30.75
2022-08-22T13:13:11.906Z,30.51
2022-08-22T13:16:16.268Z,30.11
2022-08-22T13:19:30.937Z,30.09
2022-08-22T13:22:25.585Z,30.10
2022-08-22T13:25:29.591Z,29.88
2022-08-22T13:28:15.065Z,29.81
2022-08-22T13:31:02.643Z,29.83
2022-08-22T13:33:48.584Z,29.80
2022-08-22T13:36:51.622Z,29.60
2022-08-22T13:39:42.330Z,29.56
2022-08-22T13:42:30.954Z,29.70
2022-08-22T13:45:28.007Z,29.73
2022-08-22T13:48:15.099Z,29.54
2022-08-22T13:51:13.856Z,29.33
2022-08-22T13:54:10.948Z,29.11
2022-08-22T13:57:08.746Z,29.04
2022-08-22T14:00:07.798Z,28.98
2022-08-22T14:03:25.385Z,29.07
2022-08-22T14:06:37.425Z,29.13
2022-08-22T14:09:45.338Z,29.29
2022-08-22T14:12:57.062Z,29.36
2022-08-22T14:15:45.055Z,29.22
2022-08-22T14:18:35.621Z,29.17
2022-08-22T14:21:39.988Z,29.18
2022-08-22T14:24:55.942Z,29.13
2022-08-22T14:27:55.011Z,29.05
2022-08-22T14:31:00.935Z,29.02
2022-08-22T14:33:52.696Z,28.82
2022-08-22T14:36:48.708Z,28.81
2022-08-22T14:39:44.308Z,28.82
2022-08-22T14:42:58.699Z,28.83
2022-08-22T14:45:54.220Z,28.70
2022-08-22T14:49:06.388Z,28.66
2022-08-22T14:51:57.941Z,28.54
2022-08-22T14:54:43.276Z,28.48
2022-08-22T14:57:30.068Z,28.33
2022-08-22T15:00:25.764Z,28.30
2022-08-22T15:03:19.659Z,28.23
2022-08-22T15:06:10.958Z,28.12
2022-08-22T15:08:57.711Z,28.03
2022-08-22T15:11:48.013Z,27.84
2022-08-22T15:14:37.412Z,27.60
2022-08-22T15:17:44.476Z,27.53
2022-08-22T15:20:38.216Z,27.43
2022-08-22T15:23:32.054Z,27.23
2022-08-22T15:26:24.080Z,27.17
2022-08-22T15:29:16.933Z,26.89
2022-08-22T15:32:03.880Z,26.76
2022-08-22T15:34:52.362Z,26.63
2022-08-22T15:38:01.544Z,26.43
2022-08-22T15:40:46.947Z,26.28
2022-08-22T15:43:44.104Z,26.21
2022-08-22T15:46:37.221Z,26.23
2022-08-22T15:49:22.128Z,26.20
2022-08-22T15:52:19.875Z,26.25
2022-08-22T15:55:16.453Z,26.30
2022-08-22T15:58:09.912Z,26.41
2022-08-22T16:01:18.797Z,26.39
2022-08-22T16:04:08.181Z,26.34
2022-08-22T16:06:56.917Z,26.36
2022-08-22T16:09:49.235Z,26.37
2022-08-22T16:12:44.816Z,26.34
2022-08-22T16:15:51.325Z,26.32
2022-08-22T16:18:39.680Z,26.24
2022-08-22T16:21:25.069Z,26.16
2022-08-22T16:24:10.043Z,26.00
2022-08-22T16:26:55.641Z,25.80
2022-08-22T16:29:42.009Z,25.50
2022-08-22T16:32:27.870Z,25.23
2022-08-22T16:35:51.213Z,25.07
2022-08-22T16:40:59.118Z,25.01
2022-08-22T16:43:52.687Z,24.92
2022-08-22T16:46:43.874Z,24.78
2022-08-22T16:49:33.977Z,24.65
2022-08-22T16:52:25.320Z,24.59
2022-08-22T16:55:29.060Z,24.55
2022-08-22T16:58:35.812Z,24.63
2022-08-22T17:01:50.024Z,24.74
2022-08-22T17:04:50.257Z,24.63
2022-08-22T17:08:00.239Z,24.63
2022-08-22T17:11:08.358Z,24.64
2022-08-22T17:14:20.071Z,24.53
2022-08-22T17:17:11.087Z,24.44
2022-08-22T17:20:04.677Z,24.31
2022-08-22T17:22:55.835Z,24.20
2022-08-22T17:26:26.003Z,24.14
2022-08-22T17:29:38.384Z,24.10
2022-08-22T17:32:32.548Z,24.10
2022-08-22T17:35:32.886Z,23.99
2022-08-22T17:38:32.165Z,23.78
2022-08-22T17:41:38.050Z,23.74
2022-08-22T17:44:49.500Z,23.76
2022-08-22T17:47:46.940Z,23.79
2022-08-22T17:50:54.108Z,23.73
2022-08-22T17:53:53.563Z,23.67
2022-08-22T17:57:05.375Z,23.64
2022-08-22T18:00:00.507Z,23.53
2022-08-22T18:03:23.548Z,23.38
2022-08-22T18:06:23.608Z,23.23
2022-08-22T18:09:25.478Z,23.22
2022-08-22T18:12:20.420Z,23.26
2022-08-22T18:15:13.454Z,23.26
2022-08-22T18:18:31.202Z,23.37
2022-08-22T18:21:30.384Z,23.31
2022-08-22T18:24:49.523Z,23.32
2022-08-22T18:27:59.670Z,23.39
2022-08-22T18:30:55.227Z,23.45
2022-08-22T18:33:53.782Z,23.39
2022-08-22T18:36:48.720Z,23.31
2022-08-22T18:39:46.606Z,23.19
2022-08-22T18:42:41.179Z,23.17
2022-08-22T18:45:45.262Z,23.15
2022-08-22T18:48:59.224Z,23.18
2022-08-22T18:52:05.237Z,23.24
2022-08-22T18:55:18.153Z,23.16
2022-08-22T18:58:26.718Z,23.07
2022-08-22T19:01:47.103Z,23.09
2022-08-22T19:05:10.041Z,23.08
2022-08-22T19:08:04.307Z,23.17
2022-08-22T19:11:36.848Z,23.11
2022-08-22T19:14:25.084Z,23.00
2022-08-22T19:18:01.110Z,23.02
2022-08-22T19:21:32.352Z,23.06
2022-08-22T19:24:20.316Z,23.07
2022-08-22T19:27:18.154Z,23.09
2022-08-22T19:30:28.089Z,23.13
2022-08-22T19:33:19.314Z,23.15
2022-08-22T19:36:30.016Z,23.23
2022-08-22T19:39:41.139Z,23.23
2022-08-22T19:42:26.373Z,23.21
2022-08-22T19:45:25.877Z,23.24
2022-08-22T19:48:14.379Z,23.18
2022-08-22T19:51:27.419Z,23.19
2022-08-22T19:54:22.299Z,23.17
2022-08-22T19:57:35.440Z,23.09
2022-08-22T20:00:38.965Z,23.05
2022-08-22T20:03:53.701Z,23.05
2022-08-22T20:07:03.820Z,22.99
2022-08-22T20:10:14.672Z,22.96
2022-08-22T20:13:00.112Z,22.94
2022-08-22T20:16:04.236Z,22.99
2022-08-22T20:19:15.314Z,22.93
2022-08-22T20:22:03.528Z,22.97
2022-08-22T20:24:52.258Z,23.01
2022-08-22T20:27:47.925Z,22.95
2022-08-22T20:30:42.891Z,22.98
2022-08-22T20:33:33.154Z,22.95
2022-08-22T20:36:27.848Z,22.93
2022-08-22T20:39:35.769Z,22.84
2022-08-22T20:42:21.370Z,22.83
2022-08-22T20:45:12.182Z,22.83
2022-08-22T20:47:57.949Z,22.85
2022-08-22T20:50:43.392Z,22.80
2022-08-22T20:53:28.601Z,22.78
2022-08-22T20:56:14.124Z,22.76
2022-08-22T20:59:01.214Z,22.70
2022-08-22T21:01:47.234Z,22.69
2022-08-22T21:04:49.629Z,22.56
2022-08-22T21:07:41.390Z,22.52
2022-08-22T21:10:30.371Z,22.48
2022-08-22T21:13:26.174Z,22.46
2022-08-22T21:16:16.562Z,22.40
2022-08-22T21:19:01.952Z,22.40
2022-08-22T21:21:47.256Z,22.33
2022-08-22T21:24:32.719Z,22.28
2022-08-22T21:27:26.836Z,22.23
2022-08-22T21:30:24.822Z,22.22
2022-08-22T21:33:23.696Z,22.14
2022-08-22T21:36:13.603Z,22.11
2022-08-22T21:39:11.361Z,22.15
2022-08-22T21:41:59.721Z,22.08
2022-08-22T21:44:59.130Z,22.07
2022-08-22T21:47:44.777Z,22.08
2022-08-22T21:50:33.730Z,22.10
2022-08-22T21:53:27.143Z,22.11
2022-08-22T21:56:15.332Z,22.08
2022-08-22T21:59:51.934Z,22.07
2022-08-22T22:02:44.412Z,22.06
2022-08-22T22:05:29.787Z,22.11
2022-08-22T22:08:15.688Z,22.14
2022-08-22T22:11:06.157Z,22.16
2022-08-22T22:13:53.860Z,22.12
2022-08-22T22:16:39.342Z,22.17
2022-08-22T22:19:24.313Z,22.14
2022-08-22T22:22:09.546Z,22.10
2022-08-22T22:24:54.751Z,22.09
2022-08-22T22:27:40.216Z,22.14
2022-08-22T22:30:25.486Z,22.04
2022-08-22T22:33:10.567Z,22.08
2022-08-22T22:35:58.734Z,22.07
2022-08-22T22:38:44.398Z,22.13
2022-08-22T22:41:29.578Z,22.10
2022-08-22T22:44:14.510Z,22.03
2022-08-22T22:47:02.618Z,22.06
2022-08-22T22:49:47.947Z,22.06
2022-08-22T22:52:33.089Z,22.06
2022-08-22T22:55:24.363Z,22.00
2022-08-22T22:58:10.308Z,22.01
2022-08-22T23:00:56.337Z,21.95
2022-08-22T23:03:42.697Z,21.87
2022-08-22T23:06:30.162Z,21.91
2022-08-22T23:09:15.497Z,21.93
2022-08-22T23:12:03.737Z,21.98
2022-08-22T23:14:49.261Z,21.96
2022-08-22T23:17:35.120Z,22.00
2022-08-22T23:20:20.235Z,21.95
2022-08-22T23:23:05.763Z,21.94
2022-08-22T23:25:50.630Z,21.94
2022-08-22T23:28:35.477Z,21.86
2022-08-22T23:31:32.626Z,21.86
2022-08-22T23:34:21.984Z,21.93
2022-08-22T23:37:07.644Z,21.91
2022-08-22T23:39:53.050Z,21.91
2022-08-22T23:42:39.031Z,21.88
2022-08-22T23:45:24.003Z,21.85
2022-08-22T23:48:09.420Z,21.86
2022-08-22T23:50:54.859Z,21.88
2022-08-22T23:53:40.646Z,21.89
2022-08-22T23:56:36.456Z,21.88
2022-08-22T23:59:24.901Z,21.89
